createdAt,value
2018-04-06T00:00:26.645Z,0.00
2018-04-06T00:01:26.872Z,0.00
2018-04-06T00:02:27.095Z,0.00
2018-04-06T00:03:27.319Z,0.00
2018-04-06T00:04:27.541Z,0.00
2018-04-06T00:05:27.768Z,0.00
2018-04-06T00:06:27.989Z,0.00
2018-04-06T00:07:28.219Z,0.00
2018-04-06T00:08:28.445Z,0.00
2018-04-06T00:09:28.668Z,0.00
2018-04-06T00:10:28.895Z,0.00
2018-04-06T00:11:29.114Z,0.00
2018-04-06T00:12:29.336Z,0.00
2018-04-06T00:13:29.583Z,0.00
2018-04-06T00:14:29.786Z,0.00
2018-04-06T00:15:30.012Z,0.00
2018-04-06T00:16:30.239Z,0.00
2018-04-06T00:17:30.462Z,0.00
2018-04-06T00:18:30.692Z,0.00
2018-04-06T00:19:30.912Z,0.00
2018-04-06T00:20:31.135Z,0.00
2018-04-06T00:21:31.359Z,0.00
2018-04-06T00:22:31.581Z,0.00
2018-04-06T00:23:31.805Z,0.00
2018-04-06T00:24:32.036Z,0.00
2018-04-06T00:25:32.253Z,0.00
2018-04-06T00:26:32.481Z,0.00
2018-04-06T00:27:32.698Z,0.00
2018-04-06T00:28:32.920Z,0.00
2018-04-06T00:29:33.149Z,0.00
2018-04-06T00:30:33.371Z,0.00
2018-04-06T00:31:33.596Z,0.00
2018-04-06T00:32:33.822Z,0.00
2018-04-06T00:33:34.053Z,0.00
2018-04-06T00:34:34.279Z,0.00
2018-04-06T00:35:34.498Z,0.00
2018-04-06T00:36:34.723Z,0.00
2018-04-06T00:37:34.947Z,0.00
2018-04-06T00:38:35.173Z,0.00
2018-04-06T00:39:35.396Z,0.00
2018-04-06T00:40:35.622Z,0.00
2018-04-06T00:41:35.845Z,0.00
2018-04-06T00:42:36.070Z,0.00
2018-04-06T00:43:36.289Z,0.00
2018-04-06T00:44:36.512Z,0.00
2018-04-06T00:45:36.737Z,0.00
2018-04-06T00:46:36.961Z,0.00
2018-04-06T00:47:37.184Z,0.00
2018-04-06T00:48:37.410Z,0.00
2018-04-06T00:49:37.633Z,0.00
2018-04-06T00:50:37.856Z,0.00
2018-04-06T00:51:38.082Z,0.00
2018-04-06T00:52:38.305Z,0.00
2018-04-06T00:53:38.531Z,0.00
2018-04-06T00:54:38.754Z,0.00
2018-04-06T00:55:38.979Z,0.00
2018-04-06T00:56:39.203Z,0.00
2018-04-06T00:57:39.427Z,0.00
2018-04-06T00:58:39.649Z,0.00
2018-04-06T00:59:39.875Z,0.00
2018-04-06T01:00:40.099Z,0.00
2018-04-06T01:01:40.324Z,0.00
2018-04-06T01:02:40.550Z,0.00
2018-04-06T01:03:40.773Z,0.00
2018-04-06T01:04:40.995Z,0.00
2018-04-06T01:05:41.219Z,0.00
2018-04-06T01:06:41.445Z,0.00
2018-04-06T01:07:41.675Z,0.00
2018-04-06T01:08:41.893Z,0.00
2018-04-06T01:09:42.118Z,0.00
2018-04-06T01:10:42.342Z,0.00
2018-04-06T01:11:42.564Z,0.00
2018-04-06T01:12:42.791Z,0.00
2018-04-06T01:13:43.012Z,0.00
2018-04-06T01:14:43.243Z,0.00
2018-04-06T01:15:43.464Z,0.00
2018-04-06T01:16:43.685Z,0.00
2018-04-06T01:17:43.912Z,0.00
2018-04-06T01:18:44.142Z,0.00
2018-04-06T01:19:44.366Z,0.00
2018-04-06T01:20:44.593Z,0.00
2018-04-06T01:21:44.815Z,0.00
2018-04-06T01:22:45.039Z,0.00
2018-04-06T01:23:45.264Z,0.00
2018-04-06T01:24:45.485Z,0.00
2018-04-06T01:25:45.711Z,0.00
2018-04-06T01:26:45.932Z,0.00
2018-04-06T01:27:46.159Z,0.00
2018-04-06T01:28:46.383Z,0.00
2018-04-06T01:29:46.606Z,0.00
2018-04-06T01:30:46.830Z,0.00
2018-04-06T01:31:47.054Z,0.00
2018-04-06T01:32:47.276Z,0.00
2018-04-06T01:33:47.498Z,0.00
2018-04-06T01:34:47.725Z,0.00
2018-04-06T01:35:47.952Z,0.00
2018-04-06T01:36:48.176Z,0.00
2018-04-06T01:37:48.400Z,0.00
2018-04-06T01:38:48.627Z,0.00
2018-04-06T01:39:48.848Z,0.00
2018-04-06T01:40:49.069Z,0.00
2018-04-06T01:41:49.293Z,0.00
2018-04-06T01:42:49.517Z,0.00
2018-04-06T01:43:49.745Z,0.00
2018-04-06T01:44:49.970Z,0.00
2018-04-06T01:45:50.192Z,0.00
2018-04-06T01:46:50.416Z,0.00
2018-04-06T01:47:50.639Z,0.00
2018-04-06T01:48:50.861Z,0.00
2018-04-06T01:49:51.087Z,0.00
2018-04-06T01:50:51.314Z,0.00
2018-04-06T01:51:51.533Z,0.00
2018-04-06T01:52:51.762Z,0.00
2018-04-06T01:53:51.983Z,0.00
2018-04-06T01:54:52.207Z,0.00
2018-04-06T01:55:52.433Z,0.00
2018-04-06T01:56:52.656Z,0.00
2018-04-06T01:57:52.882Z,0.00
2018-04-06T01:58:53.102Z,0.00
2018-04-06T01:59:53.365Z,0.00
2018-04-06T02:00:53.565Z,0.00
2018-04-06T02:01:53.781Z,0.00
2018-04-06T02:02:54.004Z,0.00
2018-04-06T02:03:54.229Z,0.00
2018-04-06T02:04:54.450Z,0.00
2018-04-06T02:05:54.674Z,0.00
2018-04-06T02:06:54.894Z,0.00
2018-04-06T02:07:55.121Z,0.00
2018-04-06T02:08:55.344Z,0.00
2018-04-06T02:09:55.619Z,0.00
2018-04-06T02:10:55.788Z,0.00
2018-04-06T02:11:56.013Z,0.00
2018-04-06T02:12:56.234Z,0.00
2018-04-06T02:13:56.456Z,0.00
2018-04-06T02:14:56.680Z,0.00
2018-04-06T02:15:56.903Z,0.00
2018-04-06T02:16:57.129Z,0.00
2018-04-06T02:17:57.353Z,0.00
2018-04-06T02:18:57.579Z,0.00
2018-04-06T02:19:57.804Z,0.00
2018-04-06T02:20:58.031Z,0.00
2018-04-06T02:21:58.251Z,0.00
2018-04-06T02:22:58.477Z,0.00
2018-04-06T02:23:58.702Z,0.00
2018-04-06T02:24:58.923Z,0.00
2018-04-06T02:25:59.150Z,0.00
2018-04-06T02:26:59.372Z,0.00
2018-04-06T02:27:59.594Z,0.00
2018-04-06T02:28:59.820Z,0.00
2018-04-06T02:30:00.044Z,0.00
2018-04-06T02:31:00.272Z,0.00
2018-04-06T02:32:00.496Z,0.00
2018-04-06T02:33:00.713Z,0.00
2018-04-06T02:34:00.936Z,0.00
2018-04-06T02:35:01.161Z,0.00
2018-04-06T02:36:01.385Z,0.00
2018-04-06T02:37:01.608Z,0.00
2018-04-06T02:38:01.841Z,0.00
2018-04-06T02:39:02.061Z,0.00
2018-04-06T02:40:02.290Z,0.00
2018-04-06T02:41:02.511Z,0.00
2018-04-06T02:42:02.730Z,0.00
2018-04-06T02:43:02.953Z,0.00
2018-04-06T02:44:03.178Z,0.00
2018-04-06T02:45:03.401Z,0.00
2018-04-06T02:46:03.628Z,0.00
2018-04-06T02:47:03.848Z,0.00
2018-04-06T02:48:04.071Z,0.00
2018-04-06T02:49:04.298Z,0.00
2018-04-06T02:50:04.522Z,0.00
2018-04-06T02:51:04.754Z,0.00
2018-04-06T02:52:04.974Z,0.00
2018-04-06T02:53:05.201Z,0.00
2018-04-06T02:54:05.421Z,0.00
2018-04-06T02:55:05.647Z,0.00
2018-04-06T02:56:05.872Z,0.00
2018-04-06T02:57:06.097Z,0.00
2018-04-06T02:58:06.317Z,0.00
2018-04-06T02:59:06.543Z,0.00
2018-04-06T03:00:06.765Z,0.00
2018-04-06T03:01:06.991Z,0.00
2018-04-06T03:02:07.211Z,0.00
2018-04-06T03:03:07.488Z,0.00
2018-04-06T03:04:07.660Z,0.00
2018-04-06T03:05:07.883Z,0.00
2018-04-06T03:06:08.109Z,0.00
2018-04-06T03:07:08.334Z,0.00
2018-04-06T03:08:08.555Z,0.00
2018-04-06T03:09:08.781Z,0.00
2018-04-06T03:10:09.004Z,0.00
2018-04-06T03:11:09.228Z,0.00
2018-04-06T03:12:09.455Z,0.00
2018-04-06T03:13:09.674Z,0.00
2018-04-06T03:14:09.897Z,0.00
2018-04-06T03:15:10.123Z,0.00
2018-04-06T03:16:10.346Z,0.00
2018-04-06T03:17:10.570Z,0.00
2018-04-06T03:18:10.792Z,0.00
2018-04-06T03:19:11.017Z,0.00
2018-04-06T03:20:11.240Z,0.00
2018-04-06T03:21:11.463Z,0.00
2018-04-06T03:22:11.687Z,0.00
2018-04-06T03:23:11.911Z,0.00
2018-04-06T03:24:12.137Z,0.00
2018-04-06T03:25:12.361Z,0.00
2018-04-06T03:26:12.585Z,0.00
2018-04-06T03:27:12.809Z,0.00
2018-04-06T03:28:13.034Z,0.00
2018-04-06T03:29:13.256Z,0.00
2018-04-06T03:30:13.481Z,0.00
2018-04-06T03:31:13.708Z,0.00
2018-04-06T03:32:13.926Z,0.00
2018-04-06T03:33:14.152Z,0.00
2018-04-06T03:34:14.376Z,0.00
2018-04-06T03:35:14.605Z,0.00
2018-04-06T03:36:14.823Z,0.00
2018-04-06T03:37:15.046Z,0.00
2018-04-06T03:38:15.269Z,0.00
2018-04-06T03:39:15.492Z,0.00
2018-04-06T03:40:15.717Z,0.00
2018-04-06T03:41:15.939Z,0.00
2018-04-06T03:42:16.162Z,0.00
2018-04-06T03:43:16.386Z,0.00
2018-04-06T03:44:16.611Z,0.00
2018-04-06T03:45:16.835Z,0.00
2018-04-06T03:46:17.057Z,0.00
2018-04-06T03:47:17.282Z,0.00
2018-04-06T03:48:17.505Z,0.00
2018-04-06T03:49:17.731Z,0.00
2018-04-06T03:50:17.951Z,0.00
2018-04-06T03:51:18.173Z,0.00
2018-04-06T03:52:18.398Z,0.00
2018-04-06T03:53:18.623Z,0.00
2018-04-06T03:54:18.844Z,0.00
2018-04-06T03:55:19.066Z,0.00
2018-04-06T03:56:19.289Z,0.00
2018-04-06T03:57:19.514Z,0.00
2018-04-06T03:58:19.735Z,0.00
2018-04-06T03:59:19.960Z,0.00
2018-04-06T04:00:20.183Z,0.00
2018-04-06T04:01:20.406Z,0.00
2018-04-06T04:02:20.631Z,0.00
2018-04-06T04:03:20.852Z,0.00
2018-04-06T04:04:21.076Z,0.00
2018-04-06T04:05:21.300Z,0.00
2018-04-06T04:06:21.525Z,0.00
2018-04-06T04:07:21.746Z,4.00
2018-04-06T04:08:21.970Z,4.00
2018-04-06T04:09:22.193Z,0.00
2018-04-06T04:10:22.417Z,0.00
2018-04-06T04:11:22.642Z,4.00
2018-04-06T04:12:22.865Z,0.00
2018-04-06T04:13:23.089Z,4.00
2018-04-06T04:14:23.312Z,4.00
2018-04-06T04:15:23.534Z,4.00
2018-04-06T04:16:23.759Z,4.00
2018-04-06T04:17:23.982Z,4.00
2018-04-06T04:18:24.246Z,8.00
2018-04-06T04:19:24.431Z,8.00
2018-04-06T04:20:24.653Z,8.00
2018-04-06T04:21:24.874Z,12.00
2018-04-06T04:22:25.098Z,12.00
2018-04-06T04:23:25.323Z,16.00
2018-04-06T04:24:25.545Z,20.00
2018-04-06T04:25:25.767Z,20.00
2018-04-06T04:26:25.990Z,24.00
2018-04-06T04:27:26.214Z,28.00
2018-04-06T04:28:26.435Z,32.00
2018-04-06T04:29:26.659Z,40.00
2018-04-06T04:30:26.897Z,40.00
2018-04-06T04:31:27.107Z,52.00
2018-04-06T04:32:27.329Z,60.00
2018-04-06T04:33:27.551Z,68.00
2018-04-06T04:34:27.820Z,80.00
2018-04-06T04:35:27.999Z,92.00
2018-04-06T04:36:28.222Z,100.00
2018-04-06T04:37:28.447Z,112.00
2018-04-06T04:38:28.671Z,124.00
2018-04-06T04:39:28.893Z,136.00
2018-04-06T04:40:29.118Z,156.00
2018-04-06T04:41:29.341Z,172.00
2018-04-06T04:42:29.566Z,188.00
2018-04-06T04:43:29.788Z,200.00
2018-04-06T04:44:30.016Z,220.00
2018-04-06T04:45:30.236Z,240.00
2018-04-06T04:46:30.457Z,264.00
2018-04-06T04:47:30.680Z,284.00
2018-04-06T04:48:30.905Z,304.00
2018-04-06T04:49:31.127Z,316.00
2018-04-06T04:50:31.351Z,336.00
2018-04-06T04:51:31.574Z,372.00
2018-04-06T04:52:31.796Z,412.00
2018-04-06T04:53:32.019Z,440.00
2018-04-06T04:54:32.243Z,444.00
2018-04-06T04:55:32.468Z,440.00
2018-04-06T04:56:32.692Z,448.00
2018-04-06T04:57:32.914Z,476.00
2018-04-06T04:58:33.143Z,504.00
2018-04-06T04:59:33.363Z,536.00
2018-04-06T05:00:33.591Z,572.00
2018-04-06T05:01:33.813Z,616.00
2018-04-06T05:02:34.033Z,660.00
2018-04-06T05:03:34.259Z,692.00
2018-04-06T05:04:34.484Z,728.00
2018-04-06T05:05:34.707Z,756.00
2018-04-06T05:06:34.929Z,768.00
2018-04-06T05:07:35.153Z,804.00
2018-04-06T05:08:35.376Z,860.00
2018-04-06T05:09:35.597Z,924.00
2018-04-06T05:10:35.823Z,968.00
2018-04-06T05:11:36.044Z,992.00
2018-04-06T05:12:36.270Z,988.00
2018-04-06T05:13:36.493Z,952.00
2018-04-06T05:14:36.714Z,920.00
2018-04-06T05:15:36.939Z,904.00
2018-04-06T05:16:37.160Z,920.00
2018-04-06T05:17:37.416Z,964.00
2018-04-06T05:18:37.606Z,988.00
2018-04-06T05:19:37.831Z,1028.00
2018-04-06T05:20:38.055Z,1068.00
2018-04-06T05:21:38.277Z,1144.00
2018-04-06T05:22:38.502Z,1264.00
2018-04-06T05:23:38.726Z,1348.00
2018-04-06T05:24:38.989Z,1400.00
2018-04-06T05:25:39.171Z,1476.00
2018-04-06T05:26:39.398Z,1436.00
2018-04-06T05:27:39.624Z,1516.00
2018-04-06T05:28:39.849Z,1668.00
2018-04-06T05:29:40.073Z,1756.00
2018-04-06T05:30:40.316Z,1924.00
2018-04-06T05:31:40.541Z,2148.00
2018-04-06T05:32:40.764Z,2392.00
2018-04-06T05:33:40.990Z,2572.00
2018-04-06T05:34:41.214Z,2700.00
2018-04-06T05:35:41.439Z,2736.00
2018-04-06T05:36:41.667Z,2724.00
2018-04-06T05:37:41.886Z,2748.00
2018-04-06T05:38:42.174Z,2884.00
2018-04-06T05:39:42.335Z,3128.00
2018-04-06T05:40:42.561Z,3256.00
2018-04-06T05:41:42.787Z,3412.00
2018-04-06T05:42:43.011Z,3708.00
2018-04-06T05:43:43.235Z,4036.00
2018-04-06T05:44:43.462Z,4120.00
2018-04-06T05:45:43.690Z,4140.00
2018-04-06T05:46:43.910Z,4000.00
2018-04-06T05:47:44.134Z,3964.00
2018-04-06T05:48:44.359Z,4040.00
2018-04-06T05:49:44.584Z,4100.00
2018-04-06T05:50:44.808Z,4196.00
2018-04-06T05:51:45.034Z,4432.00
2018-04-06T05:52:45.257Z,4632.00
2018-04-06T05:53:45.483Z,4616.00
2018-04-06T05:54:45.709Z,4528.00
2018-04-06T05:55:45.932Z,4456.00
2018-04-06T05:56:46.160Z,4620.00
2018-04-06T05:57:46.390Z,4948.00
2018-04-06T05:58:46.609Z,5164.00
2018-04-06T05:59:46.836Z,5304.00
2018-04-06T06:00:47.061Z,5444.00
2018-04-06T06:01:47.288Z,5512.00
2018-04-06T06:02:47.513Z,5608.00
2018-04-06T06:03:47.740Z,6404.00
2018-04-06T06:04:47.966Z,6268.00
2018-04-06T06:05:48.193Z,6376.00
2018-04-06T06:06:48.418Z,6296.00
2018-04-06T06:07:48.644Z,6304.00
2018-04-06T06:08:48.870Z,6104.00
2018-04-06T06:09:49.113Z,6208.00
2018-04-06T06:10:49.340Z,6192.00
2018-04-06T06:11:49.568Z,6124.00
2018-04-06T06:12:49.796Z,6156.00
2018-04-06T06:13:50.025Z,6192.00
2018-04-06T06:14:50.252Z,6320.00
2018-04-06T06:15:50.481Z,6332.00
2018-04-06T06:16:50.709Z,6308.00
2018-04-06T06:17:50.988Z,6280.00
2018-04-06T06:18:51.163Z,6312.00
2018-04-06T06:19:51.391Z,6364.00
2018-04-06T06:20:51.620Z,6380.00
2018-04-06T06:21:51.851Z,6428.00
2018-04-06T06:22:52.079Z,6416.00
2018-04-06T06:23:52.310Z,6420.00
2018-04-06T06:24:52.537Z,6400.00
2018-04-06T06:25:52.775Z,6448.00
2018-04-06T06:26:52.997Z,6460.00
2018-04-06T06:27:53.227Z,6460.00
2018-04-06T06:28:53.453Z,6440.00
2018-04-06T06:29:53.684Z,6488.00
2018-04-06T06:30:53.912Z,6520.00
2018-04-06T06:31:54.143Z,6504.00
2018-04-06T06:32:54.371Z,6488.00
2018-04-06T06:33:54.601Z,6512.00
2018-04-06T06:34:54.829Z,6484.00
2018-04-06T06:35:55.058Z,6508.00
2018-04-06T06:36:55.311Z,6544.00
2018-04-06T06:37:55.517Z,6588.00
2018-04-06T06:38:55.745Z,5736.00
2018-04-06T06:39:55.983Z,5552.00
2018-04-06T06:40:56.209Z,6252.00
2018-04-06T06:41:56.435Z,6600.00
2018-04-06T06:42:56.743Z,6548.00
2018-04-06T06:43:56.900Z,6540.00
2018-04-06T06:44:57.127Z,6516.00
2018-04-06T06:45:57.355Z,6520.00
2018-04-06T06:46:57.587Z,6516.00
2018-04-06T06:47:57.820Z,6528.00
2018-04-06T06:48:58.049Z,6544.00
2018-04-06T06:49:58.278Z,6524.00
2018-04-06T06:50:58.514Z,6524.00
2018-04-06T06:51:58.735Z,6536.00
2018-04-06T06:52:58.970Z,6520.00
2018-04-06T06:53:59.202Z,6508.00
2018-04-06T06:54:59.426Z,6512.00
2018-04-06T06:55:59.656Z,6480.00
2018-04-06T06:56:59.886Z,6460.00
2018-04-06T06:58:00.115Z,6448.00
2018-04-06T06:59:00.348Z,6452.00
2018-04-06T07:00:00.577Z,6436.00
2018-04-06T07:01:00.805Z,6076.00
2018-04-06T07:02:01.038Z,5692.00
2018-04-06T07:03:01.263Z,6344.00
2018-04-06T07:04:01.489Z,6516.00
2018-04-06T07:05:01.724Z,6468.00
2018-04-06T07:06:01.948Z,6332.00
2018-04-06T07:07:02.175Z,6364.00
2018-04-06T07:08:02.409Z,6388.00
2018-04-06T07:09:02.632Z,6384.00
2018-04-06T07:10:02.858Z,6308.00
2018-04-06T07:11:03.092Z,6308.00
2018-04-06T07:12:03.321Z,6268.00
2018-04-06T07:13:03.549Z,6288.00
2018-04-06T07:14:03.829Z,6408.00
2018-04-06T07:15:04.011Z,6408.00
2018-04-06T07:16:04.235Z,6408.00
2018-04-06T07:17:04.462Z,6416.00
2018-04-06T07:18:04.691Z,6416.00
2018-04-06T07:19:04.920Z,6396.00
2018-04-06T07:20:05.154Z,6396.00
2018-04-06T07:21:05.384Z,6384.00
2018-04-06T07:22:05.612Z,6368.00
2018-04-06T07:23:05.839Z,6344.00
2018-04-06T07:24:06.069Z,6320.00
2018-04-06T07:25:06.297Z,6292.00
2018-04-06T07:26:06.552Z,6268.00
2018-04-06T07:27:06.755Z,6236.00
2018-04-06T07:28:06.977Z,6204.00
2018-04-06T07:29:07.205Z,6188.00
2018-04-06T07:30:07.428Z,6140.00
2018-04-06T07:31:07.657Z,6108.00
2018-04-06T07:32:07.887Z,6084.00
2018-04-06T07:33:08.113Z,5896.00
2018-04-06T07:34:08.338Z,5800.00
2018-04-06T07:35:08.570Z,6008.00
2018-04-06T07:36:08.795Z,5972.00
2018-04-06T07:37:09.024Z,5932.00
2018-04-06T07:38:09.258Z,5896.00
2018-04-06T07:39:09.478Z,5864.00
2018-04-06T07:40:09.707Z,5820.00
2018-04-06T07:41:09.933Z,5792.00
2018-04-06T07:42:10.170Z,5744.00
2018-04-06T07:43:10.393Z,5736.00
2018-04-06T07:44:10.643Z,5728.00
2018-04-06T07:45:10.851Z,5696.00
2018-04-06T07:46:11.072Z,5684.00
2018-04-06T07:47:11.306Z,5680.00
2018-04-06T07:48:11.533Z,5684.00
2018-04-06T07:49:11.761Z,5696.00
2018-04-06T07:50:11.989Z,5700.00
2018-04-06T07:51:12.217Z,5672.00
2018-04-06T07:52:12.444Z,5664.00
2018-04-06T07:53:12.673Z,5660.00
2018-04-06T07:54:12.902Z,5644.00
2018-04-06T07:55:13.129Z,5640.00
2018-04-06T07:56:13.363Z,5628.00
2018-04-06T07:57:13.585Z,5636.00
2018-04-06T07:58:13.819Z,5632.00
2018-04-06T07:59:14.047Z,5756.00
2018-04-06T08:00:14.272Z,5748.00
2018-04-06T08:01:14.501Z,5764.00
2018-04-06T08:02:14.733Z,5744.00
2018-04-06T08:03:14.956Z,5736.00
2018-04-06T08:04:15.183Z,5736.00
2018-04-06T08:05:15.412Z,5732.00
2018-04-06T08:06:15.649Z,5740.00
2018-04-06T08:07:15.873Z,5732.00
2018-04-06T08:08:16.108Z,5732.00
2018-04-06T08:09:16.335Z,5724.00
2018-04-06T08:10:16.553Z,5712.00
2018-04-06T08:11:16.782Z,5712.00
2018-04-06T08:12:17.012Z,5712.00
2018-04-06T08:13:17.246Z,5712.00
2018-04-06T08:14:17.468Z,5704.00
2018-04-06T08:15:17.703Z,5704.00
2018-04-06T08:16:17.919Z,5708.00
2018-04-06T08:17:18.153Z,5708.00
2018-04-06T08:18:18.384Z,5700.00
2018-04-06T08:19:18.612Z,5696.00
2018-04-06T08:20:18.840Z,5684.00
2018-04-06T08:21:19.075Z,5676.00
2018-04-06T08:22:19.295Z,5668.00
2018-04-06T08:23:19.523Z,5652.00
2018-04-06T08:24:19.752Z,5652.00
2018-04-06T08:25:19.980Z,6660.00
2018-04-06T08:26:20.275Z,6668.00
2018-04-06T08:27:20.440Z,5648.00
2018-04-06T08:28:20.668Z,5644.00
2018-04-06T08:29:20.895Z,5640.00
2018-04-06T08:30:21.125Z,5636.00
2018-04-06T08:31:21.356Z,5628.00
2018-04-06T08:32:21.587Z,5628.00
2018-04-06T08:33:21.811Z,5628.00
2018-04-06T08:34:22.038Z,5624.00
2018-04-06T08:35:22.265Z,5616.00
2018-04-06T08:36:22.493Z,5616.00
2018-04-06T08:37:22.726Z,5752.00
2018-04-06T08:38:22.958Z,5596.00
2018-04-06T08:39:23.178Z,5596.00
2018-04-06T08:40:23.405Z,5608.00
2018-04-06T08:41:23.632Z,5596.00
2018-04-06T08:42:23.864Z,5608.00
2018-04-06T08:43:24.091Z,5588.00
2018-04-06T08:44:24.320Z,5600.00
2018-04-06T08:45:24.545Z,5604.00
2018-04-06T08:46:24.776Z,5612.00
2018-04-06T08:47:25.002Z,5612.00
2018-04-06T08:48:25.232Z,5608.00
2018-04-06T08:49:25.462Z,5604.00
2018-04-06T08:50:25.689Z,5600.00
2018-04-06T08:51:25.925Z,5596.00
2018-04-06T08:52:26.147Z,5596.00
2018-04-06T08:53:26.372Z,5596.00
2018-04-06T08:54:26.598Z,5596.00
2018-04-06T08:55:26.823Z,5596.00
2018-04-06T08:56:27.052Z,5600.00
2018-04-06T08:57:27.280Z,5592.00
2018-04-06T08:58:27.506Z,5592.00
2018-04-06T08:59:27.739Z,5600.00
2018-04-06T09:00:27.963Z,5596.00
2018-04-06T09:01:28.188Z,5608.00
2018-04-06T09:02:28.414Z,5624.00
2018-04-06T09:03:28.641Z,5604.00
2018-04-06T09:04:28.868Z,5608.00
2018-04-06T09:05:29.096Z,5532.00
2018-04-06T09:06:29.329Z,5536.00
2018-04-06T09:07:29.556Z,5536.00
2018-04-06T09:08:29.786Z,5480.00
2018-04-06T09:09:30.009Z,5512.00
2018-04-06T09:10:30.238Z,5524.00
2018-04-06T09:11:30.467Z,5528.00
2018-04-06T09:12:30.712Z,5532.00
2018-04-06T09:13:30.926Z,5536.00
2018-04-06T09:14:31.153Z,5532.00
2018-04-06T09:15:31.404Z,5528.00
2018-04-06T09:16:31.636Z,5532.00
2018-04-06T09:17:31.838Z,5532.00
2018-04-06T09:18:32.069Z,5536.00
2018-04-06T09:19:32.304Z,5536.00
2018-04-06T09:20:32.527Z,5536.00
2018-04-06T09:21:32.761Z,5536.00
2018-04-06T09:22:32.979Z,5536.00
2018-04-06T09:23:33.207Z,5544.00
2018-04-06T09:24:33.440Z,5544.00
2018-04-06T09:25:33.665Z,5540.00
2018-04-06T09:26:33.897Z,5548.00
2018-04-06T09:27:34.134Z,5552.00
2018-04-06T09:28:34.352Z,5560.00
2018-04-06T09:29:34.576Z,5556.00
2018-04-06T09:30:34.807Z,5556.00
2018-04-06T09:31:35.036Z,5548.00
2018-04-06T09:32:35.269Z,5548.00
2018-04-06T09:33:35.499Z,5544.00
2018-04-06T09:34:35.723Z,5544.00
2018-04-06T09:35:35.953Z,5544.00
2018-04-06T09:36:36.176Z,5556.00
2018-04-06T09:37:36.411Z,5548.00
2018-04-06T09:38:36.632Z,5548.00
2018-04-06T09:39:36.863Z,5524.00
2018-04-06T09:40:37.091Z,5524.00
2018-04-06T09:41:37.332Z,5528.00
2018-04-06T09:42:37.548Z,5524.00
2018-04-06T09:43:37.778Z,5516.00
2018-04-06T09:44:38.005Z,5532.00
2018-04-06T09:45:38.240Z,5528.00
2018-04-06T09:46:38.458Z,5528.00
2018-04-06T09:47:38.689Z,5408.00
2018-04-06T09:48:38.921Z,5456.00
2018-04-06T09:49:39.143Z,5460.00
2018-04-06T09:50:39.374Z,5456.00
2018-04-06T09:51:39.598Z,5448.00
2018-04-06T09:52:39.827Z,5460.00
2018-04-06T09:53:40.051Z,5452.00
2018-04-06T09:54:40.284Z,5448.00
2018-04-06T09:55:40.520Z,5452.00
2018-04-06T09:56:40.745Z,5452.00
2018-04-06T09:57:40.983Z,5456.00
2018-04-06T09:58:41.202Z,5456.00
2018-04-06T09:59:41.431Z,5460.00
2018-04-06T10:00:41.660Z,5456.00
2018-04-06T10:01:41.890Z,5452.00
2018-04-06T10:02:42.124Z,5452.00
2018-04-06T10:03:42.352Z,5468.00
2018-04-06T10:04:42.570Z,5460.00
2018-04-06T10:05:42.805Z,5464.00
2018-04-06T10:06:43.027Z,5460.00
2018-04-06T10:07:43.271Z,5464.00
2018-04-06T10:08:43.484Z,5464.00
2018-04-06T10:09:43.711Z,5460.00
2018-04-06T10:10:43.939Z,5460.00
2018-04-06T10:11:44.162Z,5484.00
2018-04-06T10:12:44.390Z,5476.00
2018-04-06T10:13:44.619Z,5472.00
2018-04-06T10:14:44.843Z,5468.00
2018-04-06T10:15:45.074Z,5456.00
2018-04-06T10:16:45.301Z,5460.00
2018-04-06T10:17:45.530Z,5476.00
2018-04-06T10:18:45.763Z,5472.00
2018-04-06T10:19:45.989Z,5472.00
2018-04-06T10:20:46.222Z,5480.00
2018-04-06T10:21:46.453Z,5480.00
2018-04-06T10:22:46.678Z,5480.00
2018-04-06T10:23:46.908Z,5480.00
2018-04-06T10:24:47.136Z,5484.00
2018-04-06T10:25:47.363Z,5480.00
2018-04-06T10:26:47.589Z,5488.00
2018-04-06T10:27:47.818Z,5492.00
2018-04-06T10:28:48.049Z,5492.00
2018-04-06T10:29:48.273Z,5500.00
2018-04-06T10:30:48.505Z,5500.00
2018-04-06T10:31:48.733Z,5492.00
2018-04-06T10:32:48.962Z,5492.00
2018-04-06T10:33:49.190Z,5504.00
2018-04-06T10:34:49.432Z,5508.00
2018-04-06T10:35:49.645Z,5520.00
2018-04-06T10:36:49.872Z,5520.00
2018-04-06T10:37:50.103Z,5508.00
2018-04-06T10:38:50.334Z,5524.00
2018-04-06T10:39:50.561Z,5520.00
2018-04-06T10:40:50.795Z,5532.00
2018-04-06T10:41:51.015Z,5532.00
2018-04-06T10:42:51.247Z,5528.00
2018-04-06T10:43:51.474Z,5540.00
2018-04-06T10:44:51.704Z,5532.00
2018-04-06T10:45:51.937Z,5540.00
2018-04-06T10:46:52.182Z,5532.00
2018-04-06T10:47:52.386Z,5528.00
2018-04-06T10:48:52.616Z,5528.00
2018-04-06T10:49:52.843Z,5524.00
2018-04-06T10:50:53.073Z,5524.00
2018-04-06T10:51:53.301Z,5520.00
2018-04-06T10:52:53.530Z,5524.00
2018-04-06T10:53:53.758Z,5528.00
2018-04-06T10:54:53.986Z,5516.00
2018-04-06T10:55:54.216Z,5528.00
2018-04-06T10:56:54.448Z,5532.00
2018-04-06T10:57:54.679Z,5536.00
2018-04-06T10:58:54.905Z,5532.00
2018-04-06T10:59:55.134Z,5536.00
2018-04-06T11:00:55.376Z,5532.00
2018-04-06T11:01:55.603Z,5532.00
2018-04-06T11:02:55.837Z,5532.00
2018-04-06T11:03:56.060Z,5404.00
2018-04-06T11:04:56.288Z,5404.00
2018-04-06T11:05:56.517Z,5408.00
2018-04-06T11:06:56.745Z,5412.00
2018-04-06T11:07:56.978Z,5412.00
2018-04-06T11:08:57.206Z,5408.00
2018-04-06T11:09:57.431Z,5416.00
2018-04-06T11:10:57.665Z,5412.00
2018-04-06T11:11:57.892Z,5536.00
2018-04-06T11:12:58.123Z,5540.00
2018-04-06T11:13:58.350Z,5544.00
2018-04-06T11:14:58.581Z,5536.00
2018-04-06T11:15:58.802Z,5536.00
2018-04-06T11:16:59.036Z,5536.00
2018-04-06T11:17:59.272Z,5540.00
2018-04-06T11:18:59.503Z,5544.00
2018-04-06T11:19:59.729Z,5536.00
2018-04-06T11:20:59.958Z,5544.00
2018-04-06T11:22:00.191Z,5544.00
2018-04-06T11:23:00.427Z,5544.00
2018-04-06T11:24:00.639Z,5544.00
2018-04-06T11:25:00.869Z,5548.00
2018-04-06T11:26:01.104Z,5544.00
2018-04-06T11:27:01.326Z,5544.00
2018-04-06T11:28:01.555Z,5540.00
2018-04-06T11:29:01.786Z,5540.00
2018-04-06T11:30:02.015Z,5536.00
2018-04-06T11:31:02.244Z,5536.00
2018-04-06T11:32:02.477Z,5536.00
2018-04-06T11:33:02.702Z,5528.00
2018-04-06T11:34:02.931Z,5560.00
2018-04-06T11:35:03.161Z,5532.00
2018-04-06T11:36:03.387Z,5524.00
2018-04-06T11:37:03.614Z,5516.00
2018-04-06T11:38:03.853Z,5516.00
2018-04-06T11:39:04.073Z,5508.00
2018-04-06T11:40:04.300Z,5496.00
2018-04-06T11:41:04.531Z,5512.00
2018-04-06T11:42:04.759Z,5552.00
2018-04-06T11:43:04.989Z,5532.00
2018-04-06T11:44:05.239Z,5528.00
2018-04-06T11:45:05.445Z,5528.00
2018-04-06T11:46:05.676Z,5524.00
2018-04-06T11:47:05.909Z,5524.00
2018-04-06T11:48:06.139Z,5528.00
2018-04-06T11:49:06.368Z,5520.00
2018-04-06T11:50:06.593Z,5524.00
2018-04-06T11:51:06.820Z,5520.00
2018-04-06T11:52:07.051Z,5540.00
2018-04-06T11:53:07.282Z,5516.00
2018-04-06T11:54:07.560Z,5516.00
2018-04-06T11:55:07.744Z,5516.00
2018-04-06T11:56:07.959Z,5512.00
2018-04-06T11:57:08.198Z,5516.00
2018-04-06T11:58:08.431Z,5508.00
2018-04-06T11:59:08.669Z,5508.00
2018-04-06T12:00:08.903Z,5508.00
2018-04-06T12:01:09.124Z,5512.00
2018-04-06T12:02:09.350Z,5512.00
2018-04-06T12:03:09.582Z,5508.00
2018-04-06T12:04:09.816Z,5508.00
2018-04-06T12:05:10.043Z,5512.00
2018-04-06T12:06:10.276Z,5508.00
2018-04-06T12:07:10.498Z,5508.00
2018-04-06T12:08:10.736Z,5500.00
2018-04-06T12:09:10.963Z,5492.00
2018-04-06T12:10:11.194Z,5496.00
2018-04-06T12:11:11.423Z,5500.00
2018-04-06T12:12:11.653Z,5460.00
2018-04-06T12:13:11.887Z,5492.00
2018-04-06T12:14:12.113Z,5488.00
2018-04-06T12:15:12.346Z,5480.00
2018-04-06T12:16:12.574Z,5480.00
2018-04-06T12:17:12.805Z,5476.00
2018-04-06T12:18:13.033Z,5480.00
2018-04-06T12:19:13.265Z,5480.00
2018-04-06T12:20:13.494Z,5480.00
2018-04-06T12:21:13.722Z,5476.00
2018-04-06T12:22:13.962Z,5472.00
2018-04-06T12:23:14.182Z,5472.00
2018-04-06T12:24:14.411Z,5464.00
2018-04-06T12:25:14.639Z,5464.00
2018-04-06T12:26:14.870Z,5460.00
2018-04-06T12:27:15.099Z,5460.00
2018-04-06T12:28:15.328Z,5456.00
2018-04-06T12:29:15.556Z,5456.00
2018-04-06T12:30:15.792Z,5452.00
2018-04-06T12:31:16.023Z,5452.00
2018-04-06T12:32:16.254Z,5448.00
2018-04-06T12:33:16.481Z,5444.00
2018-04-06T12:34:16.713Z,5444.00